Terminal Aerodrome Forecast
Issued by NWS

Home | Current Version | Previous Version | Text Only | Print | Product List | Glossary On
Versions: 1 2 3 4 5 6 7 8 9 10 11 12 13 14 15 16 17 18
000
FTUS45 KREV 300229 AAB
TAFMMH
TAF AMD
KMMH 300229Z 3002/3024 VRB15G25KT P6SM VCTS SCT060CB BKN200
     FM300300 VRB05KT P6SM SCT060 SCT200
     FM302100 22010KT P6SM SCT070 SCT200=

USA.gov is the U.S. government's official web portal to all federal, state and local government web resources and services.